createdAt,value
2023-01-22T00:00:50.060Z,1027.78
2023-01-22T00:01:50.067Z,1027.85
2023-01-22T00:02:50.094Z,1027.83
2023-01-22T00:03:50.086Z,1027.82
2023-01-22T00:04:49.996Z,1027.81
2023-01-22T00:05:49.968Z,1027.82
2023-01-22T00:06:50.009Z,1027.85
2023-01-22T00:07:49.965Z,1027.86
2023-01-22T00:08:49.949Z,1027.87
2023-01-22T00:09:49.944Z,1027.90
2023-01-22T00:10:49.936Z,1027.86
2023-01-22T00:11:49.902Z,1027.91
2023-01-22T00:12:49.925Z,1027.92
2023-01-22T00:13:49.909Z,1027.84
2023-01-22T00:14:49.911Z,1027.80
2023-01-22T00:15:50.032Z,1027.80
2023-01-22T00:16:49.851Z,1027.83
2023-01-22T00:17:49.869Z,1027.80
2023-01-22T00:18:49.838Z,1027.79
2023-01-22T00:19:49.827Z,1027.73
2023-01-22T00:20:49.833Z,1027.70
2023-01-22T00:21:49.834Z,1027.73
2023-01-22T00:22:49.943Z,1027.68
2023-01-22T00:23:49.783Z,1027.67
2023-01-22T00:24:49.767Z,1027.62
2023-01-22T00:25:49.775Z,1027.72
2023-01-22T00:26:49.756Z,1027.70
2023-01-22T00:27:49.748Z,1027.71
2023-01-22T00:28:49.761Z,1027.68
2023-01-22T00:29:49.709Z,1027.69
2023-01-22T00:30:49.739Z,1027.65
2023-01-22T00:31:49.845Z,1027.59
2023-01-22T00:32:49.697Z,1027.56
2023-01-22T00:33:49.677Z,1027.50
2023-01-22T00:34:49.817Z,1027.51
2023-01-22T00:35:49.636Z,1027.49
2023-01-22T00:36:49.677Z,1027.47
2023-01-22T00:37:49.646Z,1027.48
2023-01-22T00:38:49.616Z,1027.45
2023-01-22T00:39:49.632Z,1027.47
2023-01-22T00:40:49.652Z,1027.42
2023-01-22T00:41:49.580Z,1027.45
2023-01-22T00:42:49.581Z,1027.34
2023-01-22T00:43:51.742Z,1027.33
2023-01-22T00:44:49.561Z,1027.26
2023-01-22T00:45:49.565Z,1027.23
2023-01-22T00:46:49.663Z,1027.32
2023-01-22T00:47:49.526Z,1027.36
2023-01-22T00:48:49.520Z,1027.34
2023-01-22T00:49:49.499Z,1027.32
2023-01-22T00:50:49.518Z,1027.34
2023-01-22T00:51:49.630Z,1027.38
2023-01-22T00:52:49.471Z,1027.38
2023-01-22T00:53:49.460Z,1027.40
2023-01-22T00:54:49.446Z,1027.35
2023-01-22T00:55:49.439Z,1027.37
2023-01-22T00:56:49.424Z,1027.32
2023-01-22T00:57:49.433Z,1027.41
2023-01-22T00:58:49.399Z,1027.31
2023-01-22T00:59:49.407Z,1027.34
2023-01-22T01:00:49.453Z,1027.37
2023-01-22T01:01:49.738Z,1027.40
2023-01-22T01:02:49.358Z,1027.40
2023-01-22T01:03:49.362Z,1027.36
2023-01-22T01:04:49.331Z,1027.32
2023-01-22T01:05:49.348Z,1027.35
2023-01-22T01:06:50.262Z,1027.35
2023-01-22T01:07:49.804Z,1027.31
2023-01-22T01:08:49.312Z,1027.28
2023-01-22T01:09:49.321Z,1027.32
2023-01-22T01:10:49.263Z,1027.33
2023-01-22T01:11:49.301Z,1027.29
2023-01-22T01:12:49.460Z,1027.25
2023-01-22T01:13:49.246Z,1027.18
2023-01-22T01:14:49.217Z,1027.21
2023-01-22T01:15:49.288Z,1027.11
2023-01-22T01:16:49.869Z,1027.23
2023-01-22T01:17:50.190Z,1027.17
2023-01-22T01:18:49.184Z,1027.17
2023-01-22T01:19:49.174Z,1027.20
2023-01-22T01:20:49.151Z,1027.18
2023-01-22T01:21:49.179Z,1027.15
2023-01-22T01:22:49.134Z,1027.16
2023-01-22T01:23:49.155Z,1027.09
2023-01-22T01:24:49.209Z,1027.15
2023-01-22T01:25:49.118Z,1027.08
2023-01-22T01:26:49.095Z,1027.11
2023-01-22T01:27:49.127Z,1027.10
2023-01-22T01:28:49.133Z,1027.16
2023-01-22T01:29:49.059Z,1027.15
2023-01-22T01:30:49.114Z,1027.11
2023-01-22T01:31:49.052Z,1027.11
2023-01-22T01:32:49.228Z,1027.11
2023-01-22T01:33:49.060Z,1027.01
2023-01-22T01:34:49.005Z,1027.00
2023-01-22T01:35:48.999Z,1027.06
2023-01-22T01:36:49.829Z,1027.05
2023-01-22T01:37:49.932Z,1027.11
2023-01-22T01:38:48.976Z,1027.04
2023-01-22T01:39:49.100Z,1027.07
2023-01-22T01:40:48.958Z,1027.04
2023-01-22T01:41:48.986Z,1027.10
2023-01-22T01:42:48.912Z,1027.04
2023-01-22T01:43:48.905Z,1027.02
2023-01-22T01:44:48.931Z,1027.02
2023-01-22T01:45:48.959Z,1027.00
2023-01-22T01:46:49.137Z,1027.00
2023-01-22T01:47:48.917Z,1026.99
2023-01-22T01:48:48.864Z,1027.06
2023-01-22T01:49:48.889Z,1027.05
2023-01-22T01:50:48.883Z,1027.02
2023-01-22T01:51:48.861Z,1027.01
2023-01-22T01:52:48.826Z,1027.07
2023-01-22T01:53:48.857Z,1027.06
2023-01-22T01:54:48.809Z,1027.13
2023-01-22T01:55:49.303Z,1027.12
2023-01-22T01:56:48.780Z,1027.17
2023-01-22T01:57:48.782Z,1027.12
2023-01-22T01:58:48.868Z,1027.11
2023-01-22T01:59:49.109Z,1027.14
2023-01-22T02:00:49.042Z,1027.16
2023-01-22T02:01:48.773Z,1027.13
2023-01-22T02:02:48.698Z,1027.10
2023-01-22T02:03:48.706Z,1027.13
2023-01-22T02:04:48.670Z,1027.09
2023-01-22T02:05:48.715Z,1027.08
2023-01-22T02:06:48.663Z,1026.98
2023-01-22T02:07:48.651Z,1026.98
2023-01-22T02:08:48.661Z,1026.93
2023-01-22T02:09:48.661Z,1026.98
2023-01-22T02:10:48.690Z,1027.02
2023-01-22T02:11:48.671Z,1026.95
2023-01-22T02:12:48.639Z,1026.98
2023-01-22T02:13:50.762Z,1026.96
2023-01-22T02:14:48.581Z,1026.98
2023-01-22T02:15:48.608Z,1027.04
2023-01-22T02:16:48.625Z,1027.06
2023-01-22T02:17:48.560Z,1027.04
2023-01-22T02:18:48.531Z,1027.04
2023-01-22T02:19:48.591Z,1026.96
2023-01-22T02:20:48.507Z,1026.98
2023-01-22T02:21:48.495Z,1026.99
2023-01-22T02:22:48.488Z,1027.05
2023-01-22T02:23:48.471Z,1027.06
2023-01-22T02:24:48.490Z,1027.05
2023-01-22T02:25:48.451Z,1027.07
2023-01-22T02:26:48.454Z,1027.03
2023-01-22T02:27:48.464Z,1027.01
2023-01-22T02:28:48.423Z,1027.09
2023-01-22T02:29:48.420Z,1027.05
2023-01-22T02:30:48.424Z,1027.05
2023-01-22T02:31:48.446Z,1027.06
2023-01-22T02:32:48.375Z,1027.05
2023-01-22T02:33:48.394Z,1027.01
2023-01-22T02:34:48.353Z,1027.11
2023-01-22T02:35:48.353Z,1027.10
2023-01-22T02:36:48.336Z,1027.11
2023-01-22T02:37:48.347Z,1027.09
2023-01-22T02:38:48.321Z,1027.05
2023-01-22T02:39:48.538Z,1027.09
2023-01-22T02:40:48.487Z,1027.14
2023-01-22T02:41:48.939Z,1027.09
2023-01-22T02:42:48.541Z,1027.02
2023-01-22T02:43:48.266Z,1027.05
2023-01-22T02:44:48.247Z,1026.98
2023-01-22T02:45:48.267Z,1027.03
2023-01-22T02:46:48.256Z,1026.97
2023-01-22T02:47:48.217Z,1027.04
2023-01-22T02:48:48.235Z,1027.02
2023-01-22T02:49:48.189Z,1027.03
2023-01-22T02:50:48.218Z,1027.03
2023-01-22T02:51:48.167Z,1026.97
2023-01-22T02:52:48.178Z,1026.92
2023-01-22T02:53:48.197Z,1026.93
2023-01-22T02:54:48.141Z,1026.94
2023-01-22T02:55:48.153Z,1026.89
2023-01-22T02:56:48.106Z,1026.88
2023-01-22T02:57:48.101Z,1026.88
2023-01-22T02:58:48.096Z,1026.87
2023-01-22T02:59:48.088Z,1026.90
2023-01-22T03:00:48.091Z,1026.84
2023-01-22T03:01:48.181Z,1026.85
2023-01-22T03:02:48.036Z,1026.84
2023-01-22T03:03:48.052Z,1026.81
2023-01-22T03:04:48.036Z,1026.84
2023-01-22T03:05:48.019Z,1026.82
2023-01-22T03:06:48.058Z,1026.78
2023-01-22T03:07:48.002Z,1026.80
2023-01-22T03:08:47.995Z,1026.82
2023-01-22T03:09:48.012Z,1026.82
2023-01-22T03:10:47.965Z,1026.83
2023-01-22T03:11:47.970Z,1026.82
2023-01-22T03:12:47.961Z,1026.77
2023-01-22T03:13:47.993Z,1026.85
2023-01-22T03:14:47.917Z,1026.79
2023-01-22T03:15:47.909Z,1026.77
2023-01-22T03:16:48.927Z,1026.76
2023-01-22T03:17:48.118Z,1026.81
2023-01-22T03:18:47.875Z,1026.75
2023-01-22T03:19:47.912Z,1026.78
2023-01-22T03:20:47.863Z,1026.79
2023-01-22T03:21:47.851Z,1026.75
2023-01-22T03:22:47.821Z,1026.77
2023-01-22T03:23:47.825Z,1026.74
2023-01-22T03:24:47.800Z,1026.78
2023-01-22T03:25:47.829Z,1026.67
2023-01-22T03:26:47.796Z,1026.73
2023-01-22T03:27:47.893Z,1026.71
2023-01-22T03:28:47.754Z,1026.66
2023-01-22T03:29:47.779Z,1026.69
2023-01-22T03:30:47.759Z,1026.73
2023-01-22T03:31:47.836Z,1026.66
2023-01-22T03:32:47.761Z,1026.66
2023-01-22T03:33:47.711Z,1026.64
2023-01-22T03:34:47.702Z,1026.60
2023-01-22T03:35:47.717Z,1026.55
2023-01-22T03:36:47.682Z,1026.64
2023-01-22T03:37:47.701Z,1026.59
2023-01-22T03:38:47.654Z,1026.58
2023-01-22T03:39:47.708Z,1026.67
2023-01-22T03:40:47.624Z,1026.71
2023-01-22T03:41:47.684Z,1026.67
2023-01-22T03:42:47.601Z,1026.73
2023-01-22T03:43:47.658Z,1026.73
2023-01-22T03:44:47.596Z,1026.70
2023-01-22T03:45:47.589Z,1026.69
2023-01-22T03:46:47.565Z,1026.70
2023-01-22T03:47:47.647Z,1026.63
2023-01-22T03:48:47.534Z,1026.65
2023-01-22T03:49:47.539Z,1026.66
2023-01-22T03:50:47.575Z,1026.65
2023-01-22T03:51:47.525Z,1026.65
2023-01-22T03:52:47.546Z,1026.64
2023-01-22T03:53:47.509Z,1026.63
2023-01-22T03:54:47.493Z,1026.69
2023-01-22T03:55:47.487Z,1026.69
2023-01-22T03:56:47.462Z,1026.69
2023-01-22T03:57:47.456Z,1026.68
2023-01-22T03:58:47.456Z,1026.64
2023-01-22T03:59:47.457Z,1026.64
2023-01-22T04:00:47.414Z,1026.62
2023-01-22T04:01:47.408Z,1026.61
2023-01-22T04:02:47.418Z,1026.61
2023-01-22T04:03:47.397Z,1026.67
2023-01-22T04:04:47.397Z,1026.62
2023-01-22T04:05:47.371Z,1026.58
2023-01-22T04:06:47.344Z,1026.64
2023-01-22T04:07:47.356Z,1026.69
2023-01-22T04:08:47.321Z,1026.63
2023-01-22T04:09:47.363Z,1026.63
2023-01-22T04:10:47.328Z,1026.66
2023-01-22T04:11:48.299Z,1026.64
2023-01-22T04:12:47.283Z,1026.65
2023-01-22T04:13:47.276Z,1026.64
2023-01-22T04:14:47.287Z,1026.66
2023-01-22T04:15:47.264Z,1026.68
2023-01-22T04:16:47.275Z,1026.67
2023-01-22T04:17:47.232Z,1026.68
2023-01-22T04:18:48.188Z,1026.63
2023-01-22T04:19:47.220Z,1026.63
2023-01-22T04:20:48.147Z,1026.69
2023-01-22T04:21:47.187Z,1026.66
2023-01-22T04:22:47.208Z,1026.63
2023-01-22T04:23:47.185Z,1026.67
2023-01-22T04:24:47.159Z,1026.73
2023-01-22T04:25:47.140Z,1026.68
2023-01-22T04:26:47.125Z,1026.69
2023-01-22T04:27:47.152Z,1026.67
2023-01-22T04:28:47.127Z,1026.72
2023-01-22T04:29:47.120Z,1026.70
2023-01-22T04:30:47.196Z,1026.69
2023-01-22T04:31:47.142Z,1026.65
2023-01-22T04:32:47.067Z,1026.65
2023-01-22T04:33:47.089Z,1026.65
2023-01-22T04:34:47.047Z,1026.66
2023-01-22T04:35:47.116Z,1026.59
2023-01-22T04:36:47.020Z,1026.62
2023-01-22T04:37:47.017Z,1026.67
2023-01-22T04:38:47.015Z,1026.62
2023-01-22T04:39:46.992Z,1026.65
2023-01-22T04:40:47.003Z,1026.66
2023-01-22T04:41:46.993Z,1026.68
2023-01-22T04:42:46.977Z,1026.68
2023-01-22T04:43:46.971Z,1026.68
2023-01-22T04:44:46.936Z,1026.69
2023-01-22T04:45:46.935Z,1026.71
2023-01-22T04:46:46.964Z,1026.74
2023-01-22T04:47:46.909Z,1026.73
2023-01-22T04:48:46.894Z,1026.73
2023-01-22T04:49:46.887Z,1026.78
2023-01-22T04:50:46.885Z,1026.78
2023-01-22T04:51:46.885Z,1026.83
2023-01-22T04:52:46.891Z,1026.72
2023-01-22T04:53:46.858Z,1026.83
2023-01-22T04:54:48.283Z,1026.84
2023-01-22T04:55:46.835Z,1026.76
2023-01-22T04:56:46.833Z,1026.75
2023-01-22T04:57:46.807Z,1026.80
2023-01-22T04:58:48.235Z,1026.73
2023-01-22T04:59:46.781Z,1026.73
2023-01-22T05:00:46.757Z,1026.75
2023-01-22T05:01:46.785Z,1026.75
2023-01-22T05:02:46.788Z,1026.77
2023-01-22T05:03:46.724Z,1026.73
2023-01-22T05:04:46.724Z,1026.73
2023-01-22T05:05:46.718Z,1026.70
2023-01-22T05:06:46.695Z,1026.67
2023-01-22T05:07:46.727Z,1026.68
2023-01-22T05:08:46.678Z,1026.65
2023-01-22T05:09:46.677Z,1026.68
2023-01-22T05:10:46.663Z,1026.69
2023-01-22T05:11:46.676Z,1026.66
2023-01-22T05:12:46.640Z,1026.66
2023-01-22T05:13:46.630Z,1026.64
2023-01-22T05:14:46.611Z,1026.68
2023-01-22T05:15:46.661Z,1026.67
2023-01-22T05:16:46.600Z,1026.68
2023-01-22T05:17:46.634Z,1026.68
2023-01-22T05:18:46.572Z,1026.68
2023-01-22T05:19:46.709Z,1026.66
2023-01-22T05:20:46.553Z,1026.69
2023-01-22T05:21:47.498Z,1026.69
2023-01-22T05:22:46.630Z,1026.67
2023-01-22T05:23:46.508Z,1026.67
2023-01-22T05:24:46.543Z,1026.68
2023-01-22T05:25:46.616Z,1026.70
2023-01-22T05:26:46.489Z,1026.70
2023-01-22T05:27:46.520Z,1026.68
2023-01-22T05:28:47.968Z,1026.68
2023-01-22T05:29:46.576Z,1026.70
2023-01-22T05:30:46.567Z,1026.67
2023-01-22T05:31:46.474Z,1026.68
2023-01-22T05:32:46.498Z,1026.74
2023-01-22T05:33:46.428Z,1026.70
2023-01-22T05:34:46.409Z,1026.74
2023-01-22T05:35:46.380Z,1026.66
2023-01-22T05:36:46.369Z,1026.70
2023-01-22T05:37:46.361Z,1026.66
2023-01-22T05:38:46.386Z,1026.65
2023-01-22T05:39:46.374Z,1026.67
2023-01-22T05:40:46.524Z,1026.72
2023-01-22T05:41:46.312Z,1026.72
2023-01-22T05:42:46.356Z,1026.75
2023-01-22T05:43:46.322Z,1026.70
2023-01-22T05:44:46.302Z,1026.77
2023-01-22T05:45:46.272Z,1026.71
2023-01-22T05:46:46.541Z,1026.75
2023-01-22T05:47:46.317Z,1026.68
2023-01-22T05:48:46.274Z,1026.71
2023-01-22T05:49:46.478Z,1026.70
2023-01-22T05:50:46.309Z,1026.74
2023-01-22T05:51:46.203Z,1026.79
2023-01-22T05:52:46.217Z,1026.79
2023-01-22T05:53:46.324Z,1026.73
2023-01-22T05:54:46.183Z,1026.77
2023-01-22T05:55:46.167Z,1026.75
2023-01-22T05:56:47.629Z,1026.71
2023-01-22T05:57:47.616Z,1026.77
2023-01-22T05:58:46.148Z,1026.74
2023-01-22T05:59:46.134Z,1026.76
2023-01-22T06:00:46.125Z,1026.76
2023-01-22T06:01:46.118Z,1026.79
2023-01-22T06:02:46.134Z,1026.79
2023-01-22T06:03:46.121Z,1026.74
2023-01-22T06:04:46.896Z,1026.72
2023-01-22T06:05:46.144Z,1026.76
2023-01-22T06:06:46.103Z,1026.70
2023-01-22T06:07:47.505Z,1026.74
2023-01-22T06:08:46.567Z,1026.82
2023-01-22T06:09:46.965Z,1026.80
2023-01-22T06:10:46.484Z,1026.77
2023-01-22T06:11:46.022Z,1026.71
2023-01-22T06:12:46.007Z,1026.73
2023-01-22T06:13:45.979Z,1026.78
2023-01-22T06:14:46.051Z,1026.72
2023-01-22T06:15:46.231Z,1026.76
2023-01-22T06:16:45.966Z,1026.70
2023-01-22T06:17:45.950Z,1026.75
2023-01-22T06:18:45.933Z,1026.75
2023-01-22T06:19:45.908Z,1026.77
2023-01-22T06:20:45.910Z,1026.75
2023-01-22T06:21:46.033Z,1026.76
2023-01-22T06:22:45.918Z,1026.73
2023-01-22T06:23:45.910Z,1026.71
2023-01-22T06:24:45.866Z,1026.78
2023-01-22T06:25:45.837Z,1026.75
2023-01-22T06:26:45.837Z,1026.78
2023-01-22T06:27:45.828Z,1026.71
2023-01-22T06:28:45.828Z,1026.77
2023-01-22T06:29:46.049Z,1026.74
2023-01-22T06:30:46.007Z,1026.75
2023-01-22T06:31:46.234Z,1026.73
2023-01-22T06:32:45.863Z,1026.77
2023-01-22T06:33:46.448Z,1026.81
2023-01-22T06:34:45.768Z,1026.81
2023-01-22T06:35:45.753Z,1026.87
2023-01-22T06:36:45.841Z,1026.85
2023-01-22T06:37:45.713Z,1026.89
2023-01-22T06:38:45.883Z,1026.90
2023-01-22T06:39:45.846Z,1026.94
2023-01-22T06:40:46.656Z,1026.86
2023-01-22T06:41:47.124Z,1026.84
2023-01-22T06:42:45.764Z,1026.90
2023-01-22T06:43:45.726Z,1026.85
2023-01-22T06:44:45.692Z,1026.85
2023-01-22T06:45:45.660Z,1026.87
2023-01-22T06:46:46.147Z,1026.84
2023-01-22T06:47:46.563Z,1026.90
2023-01-22T06:48:48.084Z,1026.91
2023-01-22T06:49:45.623Z,1026.89
2023-01-22T06:50:45.605Z,1026.89
2023-01-22T06:51:45.588Z,1026.93
2023-01-22T06:52:45.617Z,1026.89
2023-01-22T06:53:45.565Z,1026.91
2023-01-22T06:54:45.557Z,1026.86
2023-01-22T06:55:46.969Z,1026.95
2023-01-22T06:56:45.608Z,1026.95
2023-01-22T06:57:45.498Z,1026.98
2023-01-22T06:58:45.548Z,1026.94
2023-01-22T06:59:45.484Z,1026.95
2023-01-22T07:00:45.483Z,1026.94
2023-01-22T07:01:45.527Z,1026.97
2023-01-22T07:02:45.438Z,1026.92
2023-01-22T07:03:45.514Z,1026.94
2023-01-22T07:04:45.443Z,1026.92
2023-01-22T07:05:46.356Z,1026.87
2023-01-22T07:06:46.362Z,1026.98
2023-01-22T07:07:45.400Z,1026.94
2023-01-22T07:08:45.400Z,1026.94
2023-01-22T07:09:46.179Z,1026.93
2023-01-22T07:10:45.358Z,1026.94
2023-01-22T07:11:45.389Z,1026.97
2023-01-22T07:12:45.349Z,1026.93
2023-01-22T07:13:45.395Z,1027.00
2023-01-22T07:14:45.318Z,1026.93
2023-01-22T07:15:45.363Z,1026.95
2023-01-22T07:16:45.294Z,1026.93
2023-01-22T07:17:45.568Z,1026.97
2023-01-22T07:18:45.268Z,1026.92
2023-01-22T07:19:45.288Z,1026.96
2023-01-22T07:20:45.277Z,1026.98
2023-01-22T07:21:45.253Z,1027.02
2023-01-22T07:22:45.263Z,1027.01
2023-01-22T07:23:45.245Z,1027.06
2023-01-22T07:24:45.290Z,1026.99
2023-01-22T07:25:45.279Z,1026.97
2023-01-22T07:26:45.193Z,1027.03
2023-01-22T07:27:45.180Z,1026.99
2023-01-22T07:28:45.232Z,1027.07
2023-01-22T07:29:45.214Z,1027.12
2023-01-22T07:30:45.222Z,1027.11
2023-01-22T07:31:45.185Z,1027.11
2023-01-22T07:32:45.153Z,1027.10
2023-01-22T07:33:46.059Z,1027.18
2023-01-22T07:34:45.122Z,1027.10
2023-01-22T07:35:45.089Z,1027.12
2023-01-22T07:36:45.114Z,1027.16
2023-01-22T07:37:45.132Z,1027.16
2023-01-22T07:38:45.076Z,1027.12
2023-01-22T07:39:45.233Z,1027.14
2023-01-22T07:40:45.033Z,1027.21
2023-01-22T07:41:45.032Z,1027.21
2023-01-22T07:42:45.988Z,1027.25
2023-01-22T07:43:45.305Z,1027.26
2023-01-22T07:44:45.266Z,1027.23
2023-01-22T07:45:45.931Z,1027.27
2023-01-22T07:46:45.065Z,1027.27
2023-01-22T07:47:44.975Z,1027.30
2023-01-22T07:48:45.916Z,1027.29
2023-01-22T07:49:44.933Z,1027.36
2023-01-22T07:50:44.934Z,1027.29
2023-01-22T07:51:44.903Z,1027.34
2023-01-22T07:52:44.917Z,1027.32
2023-01-22T07:53:44.903Z,1027.34
2023-01-22T07:54:44.910Z,1027.33
2023-01-22T07:55:44.862Z,1027.34
2023-01-22T07:56:44.882Z,1027.33
2023-01-22T07:57:44.844Z,1027.34
2023-01-22T07:58:44.845Z,1027.37
2023-01-22T07:59:44.833Z,1027.37
2023-01-22T08:00:44.841Z,1027.37
2023-01-22T08:01:44.861Z,1027.45
2023-01-22T08:02:44.808Z,1027.41
2023-01-22T08:03:44.793Z,1027.41
2023-01-22T08:04:44.774Z,1027.34
2023-01-22T08:05:44.770Z,1027.39
2023-01-22T08:06:44.763Z,1027.41
2023-01-22T08:07:44.783Z,1027.37
2023-01-22T08:08:44.753Z,1027.39
2023-01-22T08:09:44.736Z,1027.41
2023-01-22T08:10:44.712Z,1027.33
2023-01-22T08:11:44.701Z,1027.34
2023-01-22T08:12:46.328Z,1027.40
2023-01-22T08:13:44.707Z,1027.39
2023-01-22T08:14:44.669Z,1027.40
2023-01-22T08:15:44.654Z,1027.36
2023-01-22T08:16:44.896Z,1027.35
2023-01-22T08:17:44.625Z,1027.34
2023-01-22T08:18:44.624Z,1027.38
2023-01-22T08:19:44.640Z,1027.31
2023-01-22T08:20:44.599Z,1027.37
2023-01-22T08:21:44.595Z,1027.34
2023-01-22T08:22:44.580Z,1027.36
2023-01-22T08:23:47.604Z,1027.39
2023-01-22T08:24:44.598Z,1027.35
2023-01-22T08:25:44.564Z,1027.40
2023-01-22T08:26:44.579Z,1027.40
2023-01-22T08:27:44.517Z,1027.46
2023-01-22T08:28:44.509Z,1027.43
2023-01-22T08:29:44.519Z,1027.51
2023-01-22T08:30:46.643Z,1027.43
2023-01-22T08:31:44.620Z,1027.56
2023-01-22T08:32:44.491Z,1027.53
2023-01-22T08:33:44.451Z,1027.55
2023-01-22T08:34:44.460Z,1027.54
2023-01-22T08:35:44.440Z,1027.52
2023-01-22T08:36:44.449Z,1027.52
2023-01-22T08:37:44.413Z,1027.51
2023-01-22T08:38:45.397Z,1027.53
2023-01-22T08:39:44.389Z,1027.46
2023-01-22T08:40:44.398Z,1027.41
2023-01-22T08:41:44.379Z,1027.48
2023-01-22T08:42:44.383Z,1027.42
2023-01-22T08:43:45.339Z,1027.43
2023-01-22T08:44:45.133Z,1027.43
2023-01-22T08:45:44.358Z,1027.46
2023-01-22T08:46:44.311Z,1027.47
2023-01-22T08:47:44.302Z,1027.46
2023-01-22T08:48:44.449Z,1027.47
2023-01-22T08:49:44.324Z,1027.46
2023-01-22T08:50:44.272Z,1027.46
2023-01-22T08:51:44.297Z,1027.49
2023-01-22T08:52:44.254Z,1027.49
2023-01-22T08:53:44.251Z,1027.52
2023-01-22T08:54:44.250Z,1027.49
2023-01-22T08:55:45.383Z,1027.49
2023-01-22T08:56:44.214Z,1027.46
2023-01-22T08:57:44.200Z,1027.46
2023-01-22T08:58:44.184Z,1027.46
2023-01-22T08:59:52.589Z,1027.47
2023-01-22T09:00:46.181Z,1027.50
2023-01-22T09:01:44.164Z,1027.51
2023-01-22T09:02:44.176Z,1027.49
2023-01-22T09:03:44.143Z,1027.47
2023-01-22T09:04:44.136Z,1027.53
2023-01-22T09:05:44.125Z,1027.48
2023-01-22T09:06:44.104Z,1027.52
2023-01-22T09:07:44.100Z,1027.48
2023-01-22T09:08:44.074Z,1027.49
2023-01-22T09:09:44.099Z,1027.45
2023-01-22T09:10:44.060Z,1027.47
2023-01-22T09:11:44.082Z,1027.46
2023-01-22T09:12:44.140Z,1027.45
2023-01-22T09:13:44.035Z,1027.47
2023-01-22T09:14:44.036Z,1027.48
2023-01-22T09:15:44.000Z,1027.48
2023-01-22T09:16:45.022Z,1027.46
2023-01-22T09:17:43.993Z,1027.42
2023-01-22T09:18:43.972Z,1027.44
2023-01-22T09:19:43.998Z,1027.45
2023-01-22T09:20:43.956Z,1027.39
2023-01-22T09:21:43.925Z,1027.34
2023-01-22T09:22:43.942Z,1027.38
2023-01-22T09:23:43.938Z,1027.41
2023-01-22T09:24:43.917Z,1027.38
2023-01-22T09:25:43.889Z,1027.40
2023-01-22T09:26:43.909Z,1027.47
2023-01-22T09:27:43.877Z,1027.50
2023-01-22T09:28:43.872Z,1027.42
2023-01-22T09:29:43.858Z,1027.54
2023-01-22T09:30:43.861Z,1027.52
2023-01-22T09:31:43.997Z,1027.53
2023-01-22T09:32:43.838Z,1027.50
2023-01-22T09:33:43.882Z,1027.54
2023-01-22T09:34:43.790Z,1027.51
2023-01-22T09:35:43.807Z,1027.54
2023-01-22T09:36:43.788Z,1027.52
2023-01-22T09:37:43.763Z,1027.50
2023-01-22T09:38:43.773Z,1027.60
2023-01-22T09:39:43.747Z,1027.60
2023-01-22T09:40:43.741Z,1027.59
2023-01-22T09:41:43.728Z,1027.57
2023-01-22T09:42:43.708Z,1027.54
2023-01-22T09:43:43.724Z,1027.60
2023-01-22T09:44:43.818Z,1027.61
2023-01-22T09:45:44.753Z,1027.61
2023-01-22T09:46:43.673Z,1027.61
2023-01-22T09:47:43.677Z,1027.68
2023-01-22T09:48:43.659Z,1027.63
2023-01-22T09:49:43.668Z,1027.63
2023-01-22T09:50:43.626Z,1027.62
2023-01-22T09:51:44.589Z,1027.68
2023-01-22T09:52:43.850Z,1027.67
2023-01-22T09:53:43.591Z,1027.64
2023-01-22T09:54:43.593Z,1027.71
2023-01-22T09:55:43.588Z,1027.62
2023-01-22T09:56:43.601Z,1027.62
2023-01-22T09:57:43.540Z,1027.63
2023-01-22T09:58:43.549Z,1027.64
2023-01-22T09:59:43.542Z,1027.68
2023-01-22T10:00:43.535Z,1027.69
2023-01-22T10:01:43.500Z,1027.64
2023-01-22T10:02:43.616Z,1027.69
2023-01-22T10:03:43.469Z,1027.63
2023-01-22T10:04:44.920Z,1027.65
2023-01-22T10:05:43.472Z,1027.62
2023-01-22T10:06:43.466Z,1027.63
2023-01-22T10:07:43.462Z,1027.65
2023-01-22T10:08:43.413Z,1027.65
2023-01-22T10:09:43.416Z,1027.62
2023-01-22T10:10:44.271Z,1027.59
2023-01-22T10:11:43.386Z,1027.64
2023-01-22T10:12:43.374Z,1027.59
2023-01-22T10:13:43.377Z,1027.56
2023-01-22T10:14:43.349Z,1027.53
2023-01-22T10:15:43.363Z,1027.57
2023-01-22T10:16:43.395Z,1027.56
2023-01-22T10:17:43.314Z,1027.57
2023-01-22T10:18:43.378Z,1027.51
2023-01-22T10:19:43.416Z,1027.55
2023-01-22T10:20:43.308Z,1027.52
2023-01-22T10:21:43.266Z,1027.53
2023-01-22T10:22:43.270Z,1027.51
2023-01-22T10:23:43.264Z,1027.53
2023-01-22T10:24:43.262Z,1027.51
2023-01-22T10:25:43.236Z,1027.50
2023-01-22T10:26:43.285Z,1027.50
2023-01-22T10:27:43.210Z,1027.51
2023-01-22T10:28:43.184Z,1027.55
2023-01-22T10:29:43.222Z,1027.46
2023-01-22T10:30:43.235Z,1027.51
2023-01-22T10:31:43.215Z,1027.49
2023-01-22T10:32:43.181Z,1027.42
2023-01-22T10:33:43.144Z,1027.53
2023-01-22T10:34:43.139Z,1027.51
2023-01-22T10:35:43.440Z,1027.53
2023-01-22T10:36:43.129Z,1027.52
2023-01-22T10:37:43.145Z,1027.46
2023-01-22T10:38:43.084Z,1027.52
2023-01-22T10:39:43.087Z,1027.50
2023-01-22T10:40:43.130Z,1027.43
2023-01-22T10:41:43.083Z,1027.51
2023-01-22T10:42:43.071Z,1027.50
2023-01-22T10:43:43.099Z,1027.52
2023-01-22T10:44:43.049Z,1027.49
2023-01-22T10:45:43.026Z,1027.55
2023-01-22T10:46:42.998Z,1027.48
2023-01-22T10:47:43.017Z,1027.49
2023-01-22T10:48:43.040Z,1027.49
2023-01-22T10:49:42.983Z,1027.49
2023-01-22T10:50:42.995Z,1027.53
2023-01-22T10:51:42.970Z,1027.51
2023-01-22T10:52:42.939Z,1027.56
2023-01-22T10:53:42.974Z,1027.50
2023-01-22T10:54:42.915Z,1027.55
2023-01-22T10:55:42.914Z,1027.53
2023-01-22T10:56:42.917Z,1027.50
2023-01-22T10:57:42.880Z,1027.46
2023-01-22T10:58:43.453Z,1027.47
2023-01-22T10:59:42.906Z,1027.50
2023-01-22T11:00:51.966Z,1027.50
2023-01-22T11:01:43.934Z,1027.52
2023-01-22T11:02:42.935Z,1027.46
2023-01-22T11:03:42.823Z,1027.50
2023-01-22T11:04:42.817Z,1027.45
2023-01-22T11:05:42.790Z,1027.46
2023-01-22T11:06:43.000Z,1027.50
2023-01-22T11:07:42.772Z,1027.44
2023-01-22T11:08:42.869Z,1027.38
2023-01-22T11:09:42.790Z,1027.34
2023-01-22T11:10:42.768Z,1027.35
2023-01-22T11:11:42.734Z,1027.29
2023-01-22T11:12:42.710Z,1027.31
2023-01-22T11:13:42.716Z,1027.31
2023-01-22T11:14:43.046Z,1027.36
2023-01-22T11:15:42.727Z,1027.34
2023-01-22T11:16:42.673Z,1027.34
2023-01-22T11:17:42.947Z,1027.37
2023-01-22T11:18:42.652Z,1027.28
2023-01-22T11:19:44.632Z,1027.27
2023-01-22T11:20:42.661Z,1027.29
2023-01-22T11:21:42.632Z,1027.31
2023-01-22T11:22:42.619Z,1027.30
2023-01-22T11:23:42.613Z,1027.23
2023-01-22T11:24:42.644Z,1027.30
2023-01-22T11:25:42.584Z,1027.31
2023-01-22T11:26:42.638Z,1027.26
2023-01-22T11:27:42.574Z,1027.24
2023-01-22T11:28:42.558Z,1027.29
2023-01-22T11:29:42.572Z,1027.30
2023-01-22T11:30:42.603Z,1027.31
2023-01-22T11:31:42.620Z,1027.21
2023-01-22T11:32:42.504Z,1027.31
2023-01-22T11:33:42.527Z,1027.30
2023-01-22T11:34:42.498Z,1027.31
2023-01-22T11:35:42.468Z,1027.29
2023-01-22T11:36:42.452Z,1027.40
2023-01-22T11:37:42.471Z,1027.33
2023-01-22T11:38:42.444Z,1027.35
2023-01-22T11:39:42.447Z,1027.27
2023-01-22T11:40:42.419Z,1027.33
2023-01-22T11:41:42.408Z,1027.29
2023-01-22T11:42:42.439Z,1027.30
2023-01-22T11:43:42.407Z,1027.29
2023-01-22T11:44:42.375Z,1027.33
2023-01-22T11:45:42.363Z,1027.31
2023-01-22T11:46:42.345Z,1027.35
2023-01-22T11:47:42.332Z,1027.34
2023-01-22T11:48:42.352Z,1027.31
2023-01-22T11:49:42.318Z,1027.32
2023-01-22T11:50:42.364Z,1027.32
2023-01-22T11:51:42.319Z,1027.38
2023-01-22T11:52:42.278Z,1027.43
2023-01-22T11:53:42.274Z,1027.42
2023-01-22T11:54:42.280Z,1027.43
2023-01-22T11:55:42.265Z,1027.45
2023-01-22T11:56:42.243Z,1027.43
2023-01-22T11:57:42.279Z,1027.44
2023-01-22T11:58:42.225Z,1027.43
2023-01-22T11:59:42.237Z,1027.37
2023-01-22T12:00:42.191Z,1027.39
2023-01-22T12:01:42.232Z,1027.47
2023-01-22T12:02:42.208Z,1027.45
2023-01-22T12:03:42.233Z,1027.43
2023-01-22T12:04:42.155Z,1027.41
2023-01-22T12:05:42.157Z,1027.40